Time;durP1;ratioP1;P1;durP2;ratioP2;P2;SDS_P1;SDS_P2;PMS_P1;PMS_P2;Temp;Humidity;BMP_temperature;BMP_pressure;BME280_temperature;BME280_humidity;BME280_pressure;Samples;Min_cycle;Max_cycle;Signal;HPM_P1;HPM_P2
2023/03/20 00:01:20;;;;;;;11.48;5.63;;;7.50;99.90;;;;;;4971783;28;20035;-64
2023/03/20 00:03:46;;;;;;;11.43;6.00;;;7.50;99.90;;;;;;4972030;28;20050;-64
2023/03/20 00:06:17;;;;;;;9.45;6.18;;;7.50;99.90;;;;;;4967343;28;20577;-64
2023/03/20 00:08:44;;;;;;;13.73;6.60;;;7.50;99.90;;;;;;4949800;28;20041;-64
2023/03/20 00:11:32;;;;;;;10.25;5.85;;;7.50;99.90;;;;;;4966196;28;20050;-64
2023/03/20 00:14:14;;;;;;;10.93;5.80;;;7.40;99.90;;;;;;4965906;28;20119;-64
2023/03/20 00:16:42;;;;;;;9.32;5.45;;;7.50;99.90;;;;;;4922013;28;20049;-64
2023/03/20 00:19:16;;;;;;;8.82;5.63;;;7.50;99.90;;;;;;4981155;28;20056;-64
2023/03/20 00:21:45;;;;;;;8.43;5.60;;;7.40;99.90;;;;;;4941305;28;20555;-64
2023/03/20 00:24:11;;;;;;;10.98;5.30;;;7.40;99.90;;;;;;4933704;28;20073;-64
2023/03/20 00:26:38;;;;;;;8.00;5.30;;;7.40;99.90;;;;;;4960715;28;20046;-64
2023/03/20 00:29:06;;;;;;;9.20;5.30;;;7.40;99.90;;;;;;4955218;28;20098;-64
2023/03/20 00:31:37;;;;;;;13.63;5.20;;;7.40;99.90;;;;;;4944682;28;20062;-64
2023/03/20 00:34:06;;;;;;;9.70;4.70;;;7.40;99.90;;;;;;4944643;28;20074;-64
2023/03/20 00:36:32;;;;;;;8.02;5.15;;;7.40;99.90;;;;;;4964953;28;20628;-64
2023/03/20 00:38:58;;;;;;;9.02;4.85;;;7.40;99.90;;;;;;4941665;28;20042;-64
2023/03/20 00:41:50;;;;;;;8.85;5.20;;;7.40;99.90;;;;;;4964718;28;20101;-64
2023/03/20 00:44:25;;;;;;;11.07;5.60;;;7.40;99.90;;;;;;4942276;28;20046;-64
2023/03/20 00:46:53;;;;;;;10.60;5.15;;;7.40;99.90;;;;;;4965713;28;20409;-64
2023/03/20 00:49:26;;;;;;;9.98;5.43;;;7.40;99.90;;;;;;4951858;28;20050;-64
2023/03/20 00:51:53;;;;;;;7.15;5.20;;;7.40;99.90;;;;;;4973420;28;20069;-64
2023/03/20 00:54:19;;;;;;;10.38;5.40;;;7.30;99.90;;;;;;4965409;28;20049;-64
2023/03/20 00:56:47;;;;;;;11.02;5.28;;;7.30;99.90;;;;;;4950112;28;20413;-64
2023/03/20 00:59:18;;;;;;;7.93;4.93;;;7.40;99.90;;;;;;4963625;28;20525;-64
2023/03/20 01:01:45;;;;;;;10.88;5.40;;;7.30;99.90;;;;;;4966137;28;20046;-64
2023/03/20 01:04:14;;;;;;;13.38;5.05;;;7.30;99.90;;;;;;4962536;28;20099;-64
2023/03/20 01:06:40;;;;;;;9.02;4.90;;;7.30;99.90;;;;;;4964875;28;20054;-64
2023/03/20 01:09:05;;;;;;;9.20;5.13;;;7.30;99.90;;;;;;4964861;28;20053;-64
2023/03/20 01:11:32;;;;;;;10.45;5.05;;;7.30;99.90;;;;;;4943729;28;20092;-65
2023/03/20 01:13:57;;;;;;;13.35;5.40;;;7.30;99.90;;;;;;4955877;28;20555;-64
2023/03/20 01:16:25;;;;;;;11.02;5.30;;;7.30;99.90;;;;;;4943472;28;20038;-65
2023/03/20 01:18:52;;;;;;;10.60;5.40;;;7.30;99.90;;;;;;4963007;28;20827;-65
2023/03/20 01:21:19;;;;;;;11.93;5.38;;;7.30;99.90;;;;;;4974927;28;20051;-64
2023/03/20 01:23:46;;;;;;;13.18;5.78;;;7.30;99.90;;;;;;4956911;28;20069;-64
2023/03/20 01:26:38;;;;;;;9.68;5.43;;;7.30;99.90;;;;;;4950852;28;20560;-64
2023/03/20 01:29:21;;;;;;;9.30;5.30;;;7.30;99.90;;;;;;4936694;28;20057;-64
2023/03/20 01:31:48;;;;;;;12.00;5.55;;;7.30;99.90;;;;;;4981982;28;20185;-64
2023/03/20 01:34:18;;;;;;;9.95;5.65;;;7.30;99.90;;;;;;4966508;28;20543;-64
2023/03/20 01:36:51;;;;;;;11.40;5.28;;;7.20;99.90;;;;;;4980532;28;20046;-64
2023/03/20 01:39:20;;;;;;;12.25;5.70;;;7.30;99.90;;;;;;4964637;28;20039;-64
2023/03/20 01:41:48;;;;;;;9.50;5.28;;;7.20;99.90;;;;;;4967148;28;20049;-64
2023/03/20 01:44:28;;;;;;;10.85;5.07;;;7.20;99.90;;;;;;4964961;28;20085;-64
2023/03/20 01:46:55;;;;;;;14.85;5.40;;;7.20;99.90;;;;;;4968565;28;20046;-64
2023/03/20 01:49:21;;;;;;;13.90;5.80;;;7.20;99.90;;;;;;4953001;28;20063;-64
2023/03/20 01:51:48;;;;;;;15.75;5.90;;;7.20;99.90;;;;;;4964120;28;20056;-64
2023/03/20 01:54:20;;;;;;;15.27;6.28;;;7.20;99.90;;;;;;4967990;28;20078;-64
2023/03/20 01:56:51;;;;;;;14.70;6.85;;;7.20;99.90;;;;;;4968416;28;20118;-64
2023/03/20 01:59:35;;;;;;;15.35;6.22;;;7.20;99.90;;;;;;4969548;28;20057;-64
2023/03/20 02:02:01;;;;;;;20.58;7.30;;;7.30;99.90;;;;;;4954118;28;20042;-64
2023/03/20 02:04:34;;;;;;;13.65;6.15;;;7.30;99.90;;;;;;4978561;28;20050;-64
2023/03/20 02:07:02;;;;;;;12.00;6.80;;;7.30;99.90;;;;;;4981048;28;20053;-64
2023/03/20 02:09:28;;;;;;;18.50;6.88;;;7.20;99.90;;;;;;4962279;28;20088;-65
2023/03/20 02:11:55;;;;;;;11.02;6.72;;;7.20;99.90;;;;;;4962172;28;20141;-64
2023/03/20 02:14:22;;;;;;;13.30;6.78;;;7.20;99.90;;;;;;4964305;28;20450;-65
2023/03/20 02:16:48;;;;;;;13.07;7.13;;;7.20;99.90;;;;;;4951012;28;20111;-64
2023/03/20 02:19:39;;;;;;;19.42;7.97;;;7.30;99.90;;;;;;4946682;28;20486;-65
2023/03/20 02:22:44;;;;;;;17.48;8.35;;;7.30;99.90;;;;;;4973367;28;20061;-64
2023/03/20 02:25:32;;;;;;;17.63;8.13;;;7.30;99.90;;;;;;4965127;28;20081;-64
2023/03/20 02:28:16;;;;;;;15.38;7.82;;;7.30;99.90;;;;;;4965437;28;20109;-64
2023/03/20 02:31:04;;;;;;;19.08;8.43;;;7.30;99.90;;;;;;4943550;28;20063;-64
2023/03/20 02:33:55;;;;;;;24.17;9.27;;;7.30;99.90;;;;;;4941693;28;20050;-64
2023/03/20 02:36:53;;;;;;;22.02;7.97;;;7.30;99.90;;;;;;4941564;28;20061;-64
2023/03/20 02:39:34;;;;;;;22.15;8.55;;;7.30;99.90;;;;;;4946795;28;20050;-64
2023/03/20 02:42:02;;;;;;;20.77;9.20;;;7.30;99.90;;;;;;4957348;28;20092;-64
2023/03/20 02:44:57;;;;;;;18.48;8.43;;;7.30;99.90;;;;;;4925983;28;20101;-64
2023/03/20 02:47:32;;;;;;;15.77;8.82;;;7.30;99.90;;;;;;4925606;28;20059;-64
2023/03/20 02:50:39;;;;;;;21.27;8.07;;;7.30;99.90;;;;;;4923358;28;20050;-65
2023/03/20 02:53:23;;;;;;;21.95;8.55;;;7.30;99.90;;;;;;4945504;28;20051;-64
2023/03/20 02:56:07;;;;;;;16.38;8.35;;;7.40;99.90;;;;;;4961913;28;20138;-64
2023/03/20 02:59:02;;;;;;;18.00;8.70;;;7.30;99.90;;;;;;4945988;28;20042;-64
2023/03/20 03:01:34;;;;;;;20.52;8.70;;;7.30;99.90;;;;;;4947858;28;20482;-64
2023/03/20 03:04:06;;;;;;;20.80;8.52;;;7.40;99.90;;;;;;4947189;28;20062;-65
2023/03/20 03:06:39;;;;;;;25.77;9.03;;;7.40;99.90;;;;;;4946040;28;20053;-64
2023/03/20 03:09:11;;;;;;;22.13;8.70;;;7.30;99.90;;;;;;4941305;28;20117;-64
2023/03/20 03:11:44;;;;;;;17.98;8.80;;;7.40;99.90;;;;;;4939433;28;20047;-65
2023/03/20 03:14:28;;;;;;;27.75;9.10;;;7.40;99.90;;;;;;4946348;28;22057;-64
2023/03/20 03:16:56;;;;;;;20.08;8.60;;;7.40;99.90;;;;;;4931292;28;20043;-64
2023/03/20 03:19:26;;;;;;;19.35;9.05;;;7.40;99.90;;;;;;4951818;28;21205;-65
2023/03/20 03:21:52;;;;;;;19.90;8.55;;;7.40;99.90;;;;;;4941884;28;20042;-64
2023/03/20 03:24:34;;;;;;;18.40;8.18;;;7.40;99.90;;;;;;4947143;28;20046;-64
2023/03/20 03:27:06;;;;;;;24.40;8.23;;;7.40;99.90;;;;;;4943483;28;20089;-65
2023/03/20 03:29:35;;;;;;;19.63;9.38;;;7.40;99.90;;;;;;4944430;28;20050;-64
2023/03/20 03:32:04;;;;;;;18.73;8.50;;;7.50;99.90;;;;;;4979407;28;20062;-64
2023/03/20 03:34:32;;;;;;;19.70;9.55;;;7.40;99.90;;;;;;4963385;28;20058;-65
2023/03/20 03:37:23;;;;;;;17.38;10.05;;;7.40;99.90;;;;;;4966534;28;20520;-64
2023/03/20 03:40:11;;;;;;;19.88;9.55;;;7.40;99.90;;;;;;4966894;28;20046;-65
2023/03/20 03:43:27;;;;;;;20.33;9.30;;;7.40;99.90;;;;;;4949225;28;20485;-64
2023/03/20 03:46:14;;;;;;;19.17;9.93;;;7.40;99.90;;;;;;4946208;28;20134;-65
2023/03/20 03:48:49;;;;;;;21.50;9.60;;;7.40;99.90;;;;;;4964596;28;20050;-64
2023/03/20 03:51:29;;;;;;;21.00;9.45;;;7.40;99.90;;;;;;4966030;28;20077;-64
2023/03/20 03:54:06;;;;;;;21.00;9.35;;;7.40;99.90;;;;;;4967125;28;20117;-65
2023/03/20 03:56:34;;;;;;;19.60;9.73;;;7.40;99.90;;;;;;4959458;28;20034;-64
2023/03/20 03:59:09;;;;;;;18.08;10.20;;;7.50;99.90;;;;;;4966501;28;20041;-65
2023/03/20 04:01:37;;;;;;;22.27;9.73;;;7.40;99.90;;;;;;4958135;28;20038;-64
2023/03/20 04:04:08;;;;;;;18.45;8.68;;;7.50;99.90;;;;;;4959035;28;20049;-64
2023/03/20 04:06:34;;;;;;;18.83;8.90;;;7.50;99.90;;;;;;4964214;28;20050;-64
2023/03/20 04:09:00;;;;;;;19.63;9.70;;;7.50;99.90;;;;;;4950913;28;20042;-64
2023/03/20 04:11:29;;;;;;;19.98;9.18;;;7.50;99.90;;;;;;4949671;28;20168;-64
2023/03/20 04:13:55;;;;;;;17.63;9.38;;;7.50;99.90;;;;;;4963064;28;20236;-64
2023/03/20 04:16:23;;;;;;;19.58;9.63;;;7.50;99.90;;;;;;4929194;28;20101;-64
2023/03/20 04:18:49;;;;;;;20.85;8.75;;;7.50;99.90;;;;;;4958271;28;20049;-64
2023/03/20 04:21:15;;;;;;;21.15;9.10;;;7.50;99.90;;;;;;4965385;28;20065;-65
2023/03/20 04:23:42;;;;;;;15.93;8.05;;;7.50;99.90;;;;;;4958755;28;20124;-64
2023/03/20 04:26:07;;;;;;;16.58;8.85;;;7.50;99.90;;;;;;4961905;28;20050;-64
2023/03/20 04:28:34;;;;;;;16.70;8.48;;;7.50;99.90;;;;;;4969484;28;20053;-64
2023/03/20 04:31:01;;;;;;;20.10;8.63;;;7.50;99.90;;;;;;4951453;28;20073;-64
2023/03/20 04:33:27;;;;;;;15.50;8.43;;;7.50;99.90;;;;;;4969563;28;20050;-64
2023/03/20 04:35:54;;;;;;;19.40;8.45;;;7.50;99.90;;;;;;4936850;28;20051;-64
2023/03/20 04:38:21;;;;;;;17.50;8.55;;;7.50;99.90;;;;;;4953511;28;20100;-65
2023/03/20 04:40:48;;;;;;;18.05;9.38;;;7.50;99.90;;;;;;4947884;28;20051;-65
2023/03/20 04:43:15;;;;;;;18.80;8.90;;;7.40;99.90;;;;;;4974021;28;20493;-64
2023/03/20 04:45:41;;;;;;;16.60;8.88;;;7.50;99.90;;;;;;4962861;28;20058;-65
2023/03/20 04:48:07;;;;;;;17.65;8.85;;;7.50;99.90;;;;;;4947396;28;20057;-64
2023/03/20 04:50:33;;;;;;;20.13;9.45;;;7.50;99.90;;;;;;4961427;28;20497;-64
2023/03/20 04:52:59;;;;;;;18.90;9.70;;;7.50;99.90;;;;;;4963886;28;20061;-65
2023/03/20 04:55:25;;;;;;;15.90;9.50;;;7.50;99.90;;;;;;4962763;28;20488;-64
2023/03/20 04:57:51;;;;;;;19.70;9.30;;;7.50;99.90;;;;;;4945380;28;20053;-64
2023/03/20 05:00:17;;;;;;;19.40;9.57;;;7.50;99.90;;;;;;4958069;28;20486;-64
2023/03/20 05:02:43;;;;;;;14.40;9.32;;;7.50;99.90;;;;;;4958645;28;20101;-65
2023/03/20 05:05:09;;;;;;;21.95;10.30;;;7.50;99.90;;;;;;4952320;28;20512;-65
2023/03/20 05:07:35;;;;;;;20.65;10.30;;;7.50;99.90;;;;;;4963359;28;20046;-64
2023/03/20 05:10:03;;;;;;;18.17;10.32;;;7.50;99.90;;;;;;4955318;28;20042;-64
2023/03/20 05:12:29;;;;;;;18.77;9.95;;;7.50;99.90;;;;;;4949698;28;20039;-64
2023/03/20 05:14:54;;;;;;;17.92;9.38;;;7.50;99.90;;;;;;4959956;28;20039;-64
2023/03/20 05:17:21;;;;;;;19.08;9.93;;;7.50;99.90;;;;;;4961423;28;20050;-64
2023/03/20 05:19:48;;;;;;;17.10;9.35;;;7.50;99.90;;;;;;4964503;28;20039;-64
2023/03/20 05:22:15;;;;;;;14.88;9.13;;;7.50;99.90;;;;;;4963266;28;20046;-64
2023/03/20 05:24:41;;;;;;;19.90;9.90;;;7.50;99.90;;;;;;4953235;28;20138;-64
2023/03/20 05:27:07;;;;;;;19.63;9.93;;;7.50;99.90;;;;;;4959680;28;20243;-64
2023/03/20 05:29:33;;;;;;;17.83;10.00;;;7.50;99.90;;;;;;4968561;28;22164;-64
2023/03/20 05:31:58;;;;;;;21.60;11.20;;;7.50;99.90;;;;;;4968594;28;20102;-64
2023/03/20 05:34:24;;;;;;;21.95;10.82;;;7.50;99.90;;;;;;4963895;28;20108;-64
2023/03/20 05:36:50;;;;;;;21.70;10.48;;;7.50;99.90;;;;;;4957070;28;20057;-64
2023/03/20 05:39:16;;;;;;;19.25;10.38;;;7.50;99.90;;;;;;4964514;28;20050;-65
2023/03/20 05:41:42;;;;;;;19.13;10.35;;;7.50;99.90;;;;;;4959648;28;20042;-64
2023/03/20 05:44:08;;;;;;;18.83;10.75;;;7.50;99.90;;;;;;4946717;28;20042;-64
2023/03/20 05:46:34;;;;;;;20.48;10.57;;;7.50;99.90;;;;;;4967711;28;20077;-64
2023/03/20 05:48:59;;;;;;;18.92;9.35;;;7.50;99.90;;;;;;4967894;28;20054;-64
2023/03/20 05:51:26;;;;;;;18.77;9.77;;;7.50;99.90;;;;;;4947306;28;20416;-64
2023/03/20 05:53:52;;;;;;;20.10;11.27;;;7.50;99.90;;;;;;4956266;28;20050;-64
2023/03/20 05:56:17;;;;;;;16.52;10.23;;;7.50;99.90;;;;;;4967494;28;20387;-64
2023/03/20 05:58:43;;;;;;;13.32;8.60;;;7.60;99.90;;;;;;4937783;28;20057;-64
2023/03/20 06:01:09;;;;;;;17.70;9.65;;;7.50;99.90;;;;;;4952955;28;20046;-64
2023/03/20 06:03:35;;;;;;;15.00;9.52;;;7.50;99.90;;;;;;4960356;28;20042;-64
2023/03/20 06:06:02;;;;;;;20.70;9.70;;;7.50;99.90;;;;;;4963257;28;20053;-64
2023/03/20 06:08:29;;;;;;;20.17;9.63;;;7.50;99.90;;;;;;4951832;28;20493;-64
2023/03/20 06:10:55;;;;;;;18.42;9.65;;;7.50;99.90;;;;;;4969812;28;20482;-64
2023/03/20 06:13:21;;;;;;;22.10;9.68;;;7.50;99.90;;;;;;4962699;28;20046;-64
2023/03/20 06:15:47;;;;;;;17.05;9.60;;;7.50;99.90;;;;;;4960960;28;20133;-64
2023/03/20 06:18:12;;;;;;;17.05;9.45;;;7.50;99.90;;;;;;4961037;28;20034;-65
2023/03/20 06:20:38;;;;;;;20.05;9.88;;;7.50;99.90;;;;;;4962951;28;20053;-64
2023/03/20 06:23:05;;;;;;;19.65;10.00;;;7.50;99.90;;;;;;4943851;28;20053;-65
2023/03/20 06:25:30;;;;;;;16.85;9.38;;;7.50;99.90;;;;;;4934989;28;20049;-64
2023/03/20 06:27:57;;;;;;;24.15;10.20;;;7.50;99.90;;;;;;4977067;28;20066;-65
2023/03/20 06:30:23;;;;;;;15.85;9.20;;;7.50;99.90;;;;;;4961109;28;20089;-64
2023/03/20 06:32:49;;;;;;;22.30;10.20;;;7.50;99.90;;;;;;4959497;28;20058;-65
2023/03/20 06:35:15;;;;;;;16.70;9.50;;;7.60;99.90;;;;;;4957617;28;20054;-64
2023/03/20 06:37:41;;;;;;;16.13;9.48;;;7.60;99.90;;;;;;4975215;28;20125;-64
2023/03/20 06:40:09;;;;;;;18.95;9.75;;;7.60;99.90;;;;;;4959938;28;20046;-64
2023/03/20 06:42:35;;;;;;;17.45;10.07;;;7.60;99.90;;;;;;4956054;28;20181;-64
2023/03/20 06:45:00;;;;;;;18.15;9.90;;;7.60;99.90;;;;;;4950587;28;20689;-64
2023/03/20 06:47:26;;;;;;;18.83;10.45;;;7.60;99.90;;;;;;4957505;28;20057;-64
2023/03/20 06:49:52;;;;;;;18.73;10.65;;;7.60;99.90;;;;;;4961759;28;20069;-64
2023/03/20 06:52:21;;;;;;;17.95;10.68;;;7.60;99.90;;;;;;4958507;28;20056;-64
2023/03/20 06:54:47;;;;;;;18.95;10.85;;;7.60;99.90;;;;;;4947746;28;20045;-64
2023/03/20 06:57:13;;;;;;;22.00;10.50;;;7.70;99.90;;;;;;4947660;28;20051;-64
2023/03/20 06:59:39;;;;;;;20.65;11.75;;;7.70;99.90;;;;;;4965105;28;20038;-64
2023/03/20 07:02:06;;;;;;;19.27;11.15;;;7.70;99.90;;;;;;4945086;28;20049;-65
2023/03/20 07:04:32;;;;;;;19.33;10.85;;;7.70;99.90;;;;;;4955135;28;20046;-64
2023/03/20 07:06:58;;;;;;;16.85;10.90;;;7.70;99.90;;;;;;4952749;28;20509;-60
2023/03/20 07:09:24;;;;;;;19.35;10.63;;;7.80;99.90;;;;;;4974437;28;20129;-62
2023/03/20 07:11:50;;;;;;;17.25;10.35;;;7.80;99.90;;;;;;4983167;28;20091;-62
2023/03/20 07:14:15;;;;;;;26.40;11.18;;;7.80;99.90;;;;;;4969837;28;20097;-61
2023/03/20 07:16:41;;;;;;;23.23;11.05;;;7.90;99.90;;;;;;4967588;28;20105;-61
2023/03/20 07:19:07;;;;;;;25.40;11.23;;;7.90;99.90;;;;;;4966806;28;20046;-62
2023/03/20 07:21:33;;;;;;;20.83;10.88;;;8.00;99.90;;;;;;4985501;28;20034;-62
2023/03/20 07:24:00;;;;;;;21.08;11.27;;;8.00;99.90;;;;;;4965096;28;20544;-61
2023/03/20 07:26:26;;;;;;;18.70;10.60;;;8.00;99.90;;;;;;4988923;28;20919;-61
2023/03/20 07:28:52;;;;;;;24.73;11.23;;;8.00;99.90;;;;;;4971819;28;20047;-61
2023/03/20 07:31:23;;;;;;;21.13;10.35;;;8.10;99.90;;;;;;4955320;28;20461;-61
2023/03/20 07:33:49;;;;;;;19.83;10.57;;;8.10;99.90;;;;;;4970315;28;20042;-61
2023/03/20 07:36:15;;;;;;;19.23;10.73;;;8.20;99.90;;;;;;4985980;28;20485;-62
2023/03/20 07:38:41;;;;;;;23.33;11.95;;;8.30;99.90;;;;;;4979228;28;20046;-61
2023/03/20 07:41:07;;;;;;;23.75;10.93;;;8.30;99.90;;;;;;4961214;28;20062;-62
2023/03/20 07:43:33;;;;;;;18.88;10.32;;;8.40;99.90;;;;;;4988253;28;20054;-61
2023/03/20 07:46:02;;;;;;;21.90;10.95;;;8.40;99.90;;;;;;4966750;28;20409;-62
2023/03/20 07:48:28;;;;;;;20.63;11.15;;;8.40;99.90;;;;;;4957988;28;20401;-61
2023/03/20 07:50:54;;;;;;;17.77;10.75;;;8.40;99.90;;;;;;4975563;28;20050;-61
2023/03/20 07:53:20;;;;;;;24.92;11.27;;;8.40;99.90;;;;;;4979742;28;20050;-62
2023/03/20 07:55:45;;;;;;;18.88;11.23;;;8.50;99.90;;;;;;4988982;28;20050;-62
2023/03/20 07:58:11;;;;;;;20.20;11.60;;;8.50;99.90;;;;;;4953170;28;20050;-62
2023/03/20 08:00:37;;;;;;;23.73;11.43;;;8.50;99.90;;;;;;4977536;28;20088;-61
2023/03/20 08:03:03;;;;;;;19.15;11.52;;;8.50;99.90;;;;;;4970391;28;20128;-62
2023/03/20 08:05:29;;;;;;;27.17;12.23;;;8.60;99.90;;;;;;4971863;28;20046;-62
2023/03/20 08:07:55;;;;;;;18.10;11.40;;;8.70;99.90;;;;;;4988193;28;20049;-61
2023/03/20 08:10:21;;;;;;;23.80;11.75;;;8.70;99.90;;;;;;4969437;28;20058;-61
2023/03/20 08:12:47;;;;;;;22.05;10.95;;;8.80;99.90;;;;;;4982069;28;20053;-61
2023/03/20 08:15:12;;;;;;;23.63;11.40;;;8.80;99.90;;;;;;4969162;28;20113;-61
2023/03/20 08:17:44;;;;;;;19.90;12.23;;;8.80;99.90;;;;;;4988474;28;20070;-61
2023/03/20 08:20:11;;;;;;;27.00;11.87;;;8.80;99.90;;;;;;4990197;28;20050;-61
2023/03/20 08:22:38;;;;;;;22.73;11.27;;;8.80;99.90;;;;;;4987335;28;20042;-61
2023/03/20 08:25:04;;;;;;;17.98;11.43;;;8.80;99.90;;;;;;4951646;28;20493;-61
2023/03/20 08:27:30;;;;;;;22.38;11.52;;;8.80;99.90;;;;;;4960385;28;20485;-61
2023/03/20 08:29:55;;;;;;;23.38;11.40;;;8.80;99.90;;;;;;4959141;28;20087;-60
2023/03/20 08:32:21;;;;;;;21.38;11.90;;;8.80;99.90;;;;;;4945652;28;20066;-61
2023/03/20 08:34:47;;;;;;;21.35;11.50;;;8.80;99.90;;;;;;4967752;28;20409;-61
2023/03/20 08:37:13;;;;;;;22.70;10.75;;;8.80;99.90;;;;;;4960888;28;20226;-61
2023/03/20 08:39:39;;;;;;;20.63;11.40;;;8.80;99.90;;;;;;4966158;28;20121;-61
2023/03/20 08:42:05;;;;;;;23.88;11.70;;;8.80;99.90;;;;;;4967146;28;20146;-62
2023/03/20 08:44:31;;;;;;;20.63;12.25;;;8.80;99.90;;;;;;4961877;28;20050;-61
2023/03/20 08:46:57;;;;;;;23.05;11.70;;;8.80;99.90;;;;;;4966526;28;20038;-62
2023/03/20 08:49:23;;;;;;;23.30;10.80;;;8.90;99.90;;;;;;4965637;28;20059;-61
2023/03/20 08:51:49;;;;;;;22.92;11.52;;;8.90;99.90;;;;;;4967907;28;20047;-62
2023/03/20 08:54:17;;;;;;;23.08;12.48;;;9.00;99.90;;;;;;4959683;28;20126;-62
2023/03/20 08:56:44;;;;;;;22.77;12.65;;;9.00;99.90;;;;;;4955757;28;20085;-61
2023/03/20 08:59:10;;;;;;;21.10;10.88;;;9.10;99.90;;;;;;4970967;28;20050;-61
2023/03/20 09:01:37;;;;;;;17.63;10.23;;;9.10;99.90;;;;;;4959687;28;20066;-61
2023/03/20 09:04:04;;;;;;;26.92;12.10;;;9.20;99.90;;;;;;4966367;28;20069;-62
2023/03/20 09:06:31;;;;;;;24.05;11.48;;;9.20;99.90;;;;;;4966839;28;20121;-61
2023/03/20 09:08:57;;;;;;;21.48;10.90;;;9.30;99.90;;;;;;4957098;28;20045;-61
2023/03/20 09:11:23;;;;;;;21.75;11.02;;;9.40;99.90;;;;;;4959037;28;20055;-62
2023/03/20 09:13:49;;;;;;;20.75;11.15;;;9.40;99.90;;;;;;4966641;28;20083;-61
2023/03/20 09:16:15;;;;;;;19.48;11.23;;;9.50;99.90;;;;;;4948700;28;20121;-62
2023/03/20 09:18:41;;;;;;;23.73;11.15;;;9.60;99.90;;;;;;4967160;28;20058;-61
2023/03/20 09:21:07;;;;;;;23.55;11.18;;;9.70;99.90;;;;;;4965680;28;20038;-61
2023/03/20 09:23:33;;;;;;;23.02;11.75;;;9.70;99.90;;;;;;4969029;28;20085;-62
2023/03/20 09:25:59;;;;;;;22.52;11.60;;;9.80;99.90;;;;;;4957713;28;20437;-62
2023/03/20 09:28:26;;;;;;;22.05;11.05;;;9.80;99.90;;;;;;4967107;28;20054;-62
2023/03/20 09:30:56;;;;;;;19.40;10.73;;;9.80;99.90;;;;;;4966092;28;20221;-62
2023/03/20 09:33:22;;;;;;;20.25;10.73;;;9.90;99.90;;;;;;4985616;28;20055;-62
2023/03/20 09:35:48;;;;;;;19.75;9.93;;;9.90;99.90;;;;;;4987258;28;20206;-62
2023/03/20 09:38:14;;;;;;;20.60;10.65;;;9.90;99.90;;;;;;4969618;28;20138;-62
2023/03/20 09:40:51;;;;;;;17.23;10.23;;;10.00;99.90;;;;;;4983205;28;20046;-62
2023/03/20 09:43:36;;;;;;;18.20;10.27;;;10.00;99.90;;;;;;4975233;28;20109;-61
2023/03/20 09:46:48;;;;;;;22.13;10.80;;;10.00;99.90;;;;;;4985158;28;21511;-62
2023/03/20 09:49:36;;;;;;;17.98;9.43;;;10.10;99.90;;;;;;4951192;28;20062;-61
2023/03/20 09:52:23;;;;;;;16.92;9.80;;;10.10;99.90;;;;;;4984159;28;20104;-62
2023/03/20 09:54:55;;;;;;;19.20;10.60;;;10.10;99.90;;;;;;4986399;28;20129;-62
2023/03/20 09:57:28;;;;;;;16.38;9.55;;;10.20;99.90;;;;;;4967666;28;20508;-61
2023/03/20 10:00:01;;;;;;;19.80;9.57;;;10.30;99.90;;;;;;4966558;28;20046;-62
2023/03/20 10:02:53;;;;;;;19.35;9.75;;;10.30;99.90;;;;;;4969409;28;20555;-62
2023/03/20 10:05:39;;;;;;;20.58;10.45;;;10.40;99.90;;;;;;4986914;28;20109;-61
2023/03/20 10:08:11;;;;;;;22.23;10.00;;;10.40;99.90;;;;;;4984611;28;20125;-61
2023/03/20 10:10:52;;;;;;;20.45;9.95;;;10.50;99.90;;;;;;4959967;28;20038;-61
2023/03/20 10:13:44;;;;;;;23.40;9.93;;;10.60;99.90;;;;;;4984893;28;20061;-62
2023/03/20 10:16:23;;;;;;;18.90;10.35;;;10.70;99.90;;;;;;4985923;28;20944;-62
2023/03/20 10:19:15;;;;;;;27.10;9.90;;;10.80;99.90;;;;;;4985308;28;20065;-61
2023/03/20 10:21:48;;;;;;;19.08;9.18;;;10.80;99.90;;;;;;4968206;28;20064;-61
2023/03/20 10:24:26;;;;;;;16.85;9.90;;;10.80;99.90;;;;;;4986070;28;20134;-61
2023/03/20 10:26:57;;;;;;;20.80;9.32;;;10.80;99.90;;;;;;4968808;28;20049;-61
2023/03/20 10:29:37;;;;;;;16.98;9.75;;;10.70;99.90;;;;;;4986641;28;20042;-62
2023/03/20 10:32:25;;;;;;;17.35;9.32;;;10.70;99.90;;;;;;4965657;28;20073;-62
2023/03/20 10:34:54;;;;;;;23.83;9.77;;;10.70;99.90;;;;;;4944035;28;20053;-62
2023/03/20 10:37:19;;;;;;;19.33;9.55;;;10.70;99.90;;;;;;4986170;28;20045;-62
2023/03/20 10:40:12;;;;;;;21.55;9.55;;;10.60;99.90;;;;;;4968024;28;20047;-61
2023/03/20 10:42:40;;;;;;;;;;;10.60;99.90;;;;;;4985918;28;20141;-61
2023/03/20 10:45:27;;;;;;;19.13;10.20;;;10.60;99.90;;;;;;4986016;28;20040;-61
2023/03/20 10:47:54;;;;;;;22.35;10.15;;;10.60;99.90;;;;;;4986276;28;20046;-61
2023/03/20 10:50:27;;;;;;;19.38;9.98;;;10.80;99.90;;;;;;4985750;28;20057;-60
2023/03/20 10:52:54;;;;;;;;;;;11.00;99.90;;;;;;4961241;28;20409;-61
2023/03/20 10:55:26;;;;;;;26.33;10.40;;;11.10;99.90;;;;;;4985064;28;20397;-61
2023/03/20 10:57:58;;;;;;;23.77;10.10;;;11.10;99.90;;;;;;4967702;28;20038;-61
2023/03/20 11:00:25;;;;;;;19.17;9.65;;;11.20;99.90;;;;;;4969225;28;20072;-61
2023/03/20 11:02:51;;;;;;;19.45;10.02;;;11.10;99.90;;;;;;4978953;28;20133;-61
2023/03/20 11:05:27;;;;;;;16.92;8.30;;;11.10;99.90;;;;;;4983717;28;20100;-61
2023/03/20 11:08:08;;;;;;;18.80;9.55;;;11.00;99.90;;;;;;4988271;28;20046;-61
2023/03/20 11:10:36;;;;;;;19.38;9.48;;;10.90;99.90;;;;;;4975010;28;20067;-61
2023/03/20 11:13:18;;;;;;;21.10;9.43;;;10.80;99.90;;;;;;4976902;28;20050;-61
2023/03/20 11:15:44;;;;;;;18.90;8.90;;;10.70;99.90;;;;;;4964447;28;20085;-60
2023/03/20 11:18:15;;;;;;;19.30;9.40;;;10.70;99.90;;;;;;4989356;28;20050;-61
2023/03/20 11:20:53;;;;;;;19.63;9.52;;;10.60;99.90;;;;;;4973715;28;20067;-61
2023/03/20 11:23:29;;;;;;;16.10;8.70;;;10.60;99.90;;;;;;4988973;28;20129;-61
2023/03/20 11:26:01;;;;;;;21.50;10.15;;;10.50;99.90;;;;;;4948685;28;20042;-61
2023/03/20 11:28:42;;;;;;;;;;;10.40;99.90;;;;;;4981031;28;20108;-61
2023/03/20 11:31:13;;;;;;;21.10;8.68;;;10.40;99.90;;;;;;4965094;28;19968;-61
2023/03/20 11:34:04;;;;;;;17.33;8.90;;;10.40;99.90;;;;;;4987759;28;20062;-61
2023/03/20 11:36:33;;;;;;;19.00;8.52;;;10.40;99.90;;;;;;4982786;28;20121;-61
2023/03/20 11:39:21;;;;;;;16.73;8.57;;;10.50;99.90;;;;;;4971743;28;20053;-61
2023/03/20 11:41:51;;;;;;;16.80;8.05;;;10.50;99.90;;;;;;4972620;28;20567;-62
2023/03/20 11:44:24;;;;;;;17.05;9.35;;;10.50;99.90;;;;;;4987995;28;20058;-61
2023/03/20 11:46:58;;;;;;;16.95;8.82;;;10.50;99.90;;;;;;4987444;28;20406;-61
2023/03/20 11:49:28;;;;;;;16.10;8.57;;;10.50;99.90;;;;;;4987912;28;20058;-62
2023/03/20 11:52:01;;;;;;;15.13;7.78;;;10.50;99.90;;;;;;4987962;28;20496;-62
2023/03/20 11:54:29;;;;;;;16.38;7.28;;;10.60;99.90;;;;;;4987992;28;20046;-61
2023/03/20 11:56:57;;;;;;;14.52;7.15;;;10.50;99.90;;;;;;4989279;28;20045;-62
2023/03/20 11:59:33;;;;;;;21.98;7.30;;;10.50;99.90;;;;;;4970853;28;20046;-61
2023/03/20 12:02:02;;;;;;;12.05;5.68;;;10.50;99.90;;;;;;4988059;28;20134;-61
2023/03/20 12:04:40;;;;;;;10.32;5.35;;;10.40;99.90;;;;;;4983774;28;20046;-62
2023/03/20 12:07:29;;;;;;;11.57;4.95;;;10.30;99.90;;;;;;4957026;28;20061;-62
2023/03/20 12:10:01;;;;;;;11.52;5.28;;;10.30;99.90;;;;;;4987972;28;20072;-62
2023/03/20 12:12:42;;;;;;;11.77;5.85;;;10.20;99.90;;;;;;4949854;28;20457;-61
2023/03/20 12:15:23;;;;;;;16.25;5.45;;;10.10;99.90;;;;;;4983760;28;20129;-61
2023/03/20 12:17:57;;;;;;;11.13;5.43;;;10.00;99.90;;;;;;4990594;28;20144;-62
2023/03/20 12:20:37;;;;;;;13.23;4.70;;;10.00;99.90;;;;;;4970456;28;20057;-62
2023/03/20 12:23:13;;;;;;;10.68;4.65;;;9.90;99.90;;;;;;4986595;28;20097;-62
2023/03/20 12:25:52;;;;;;;10.68;4.60;;;10.00;99.90;;;;;;4963415;28;20073;-62
2023/03/20 12:28:45;;;;;;;11.20;4.53;;;10.00;99.90;;;;;;4969925;28;20493;-62
2023/03/20 12:31:25;;;;;;;8.45;5.05;;;9.90;99.90;;;;;;4953017;28;20062;-61
2023/03/20 12:34:04;;;;;;;12.07;5.13;;;9.90;99.90;;;;;;4973678;28;20509;-62
2023/03/20 12:36:36;;;;;;;10.98;4.80;;;9.90;99.90;;;;;;4950888;28;20054;-62
2023/03/20 12:39:05;;;;;;;11.15;4.93;;;9.90;99.90;;;;;;4968481;28;20197;-62
2023/03/20 12:41:43;;;;;;;12.15;5.18;;;9.80;99.90;;;;;;4967238;28;20192;-62
2023/03/20 12:44:12;;;;;;;10.52;5.13;;;9.80;99.90;;;;;;4967086;28;20062;-62
2023/03/20 12:46:53;;;;;;;10.75;5.75;;;9.70;99.90;;;;;;4947177;28;20066;-62
2023/03/20 12:49:38;;;;;;;11.07;5.65;;;9.70;99.90;;;;;;4964429;28;20050;-62
2023/03/20 12:52:22;;;;;;;10.77;6.00;;;9.70;99.90;;;;;;4964171;28;20066;-62
2023/03/20 12:55:08;;;;;;;13.32;6.32;;;9.60;99.90;;;;;;4965349;28;20358;-61
2023/03/20 12:57:40;;;;;;;12.48;5.78;;;9.60;99.90;;;;;;4965523;28;20046;-62
2023/03/20 13:00:30;;;;;;;9.95;6.43;;;9.60;99.90;;;;;;4969736;28;20042;-62
2023/03/20 13:02:59;;;;;;;11.82;6.78;;;9.50;99.90;;;;;;4968400;28;20421;-62
2023/03/20 13:05:49;;;;;;;11.02;6.22;;;9.50;99.90;;;;;;4963978;28;20046;-62